Time;durP1;ratioP1;P1;durP2;ratioP2;P2;SDS_P1;SDS_P2;PMS_P1;PMS_P2;Temp;Humidity;BMP_temperature;BMP_pressure;BME280_temperature;BME280_humidity;BME280_pressure;Samples;Min_cycle;Max_cycle;Signal;HPM_P1;HPM_P2
2022/12/22 03:28:16;;;;;;;4.85;3.92;;;;;;;-0.02;nan;98571.84;5036695;28;20177;-70
2022/12/22 03:30:41;;;;;;;8.30;5.00;;;;;;;-0.01;nan;98573.56;5037158;28;20120;-68
2022/12/22 03:33:05;;;;;;;3.90;2.92;;;;;;;0.08;nan;98567.03;5036809;28;20066;-68
2022/12/22 03:35:30;;;;;;;5.50;4.20;;;;;;;-0.01;nan;98555.22;5037720;28;20040;-73
2022/12/22 03:37:54;;;;;;;4.90;3.78;;;;;;;-0.01;nan;98565.69;5034991;28;20040;-73
2022/12/22 03:40:19;;;;;;;8.70;3.88;;;;;;;0.02;nan;98555.06;5038638;28;20036;-74
2022/12/22 03:48:10;;;;;;;9.65;5.13;;;;;;;-0.02;nan;98566.63;5037599;28;20126;-74
2022/12/22 03:50:37;;;;;;;7.25;4.88;;;;;;;0.07;nan;98560.09;5035196;28;20082;-75
2022/12/22 03:53:03;;;;;;;6.93;4.38;;;;;;;0.09;nan;98560.88;4999183;28;20041;-75
2022/12/22 03:55:28;;;;;;;8.13;5.22;;;;;;;-0.01;nan;98555.22;5023778;28;20064;-77
2022/12/22 03:57:52;;;;;;;7.47;5.47;;;;;;;0.03;nan;98562.00;5036092;28;20047;-74
2022/12/22 04:00:17;;;;;;;6.88;4.43;;;;;;;0.08;nan;98562.66;5033000;28;20032;-75
2022/12/22 04:02:42;;;;;;;7.45;5.07;;;;;;;0.09;nan;98561.72;5036845;28;20040;-75
2022/12/22 04:05:07;;;;;;;9.43;5.60;;;;;;;0.09;nan;98559.13;5018777;28;20040;-73
2022/12/22 04:07:32;;;;;;;6.07;4.53;;;;;;;0.13;nan;98565.03;5036985;28;20075;-73
2022/12/22 04:12:55;;;;;;;9.65;5.32;;;;;;;0.10;nan;98558.19;5016845;28;20037;-72
2022/12/22 04:15:25;;;;;;;7.95;5.57;;;;;;;0.14;nan;98551.03;5021622;28;20090;-72
2022/12/22 04:17:50;;;;;;;10.63;6.28;;;;;;;0.15;nan;98556.19;5036882;28;20048;-73
2022/12/22 04:20:15;;;;;;;8.23;5.22;;;;;;;0.14;nan;98540.53;5037213;28;20470;-75
2022/12/22 04:22:39;;;;;;;7.63;5.55;;;;;;;0.16;nan;98552.66;5018862;28;20403;-74
2022/12/22 04:25:04;;;;;;;8.88;5.40;;;;;;;0.20;nan;98553.38;5035657;28;20041;-70
2022/12/22 04:27:29;;;;;;;10.52;5.97;;;;;;;0.17;nan;98564.84;5018904;28;20044;-72
2022/12/22 04:29:53;;;;;;;9.50;6.22;;;;;;;0.18;nan;98549.97;5036819;28;20036;-72
2022/12/22 04:32:18;;;;;;;8.43;5.43;;;;;;;0.24;nan;98554.91;5036311;28;20415;-73
2022/12/22 04:34:42;;;;;;;8.07;5.68;;;;;;;0.23;nan;98556.66;5008057;28;20048;-72
2022/12/22 04:37:07;;;;;;;11.48;6.78;;;;;;;0.20;nan;98556.00;5047223;28;20048;-74
2022/12/22 04:39:32;;;;;;;9.68;6.32;;;;;;;0.20;nan;98553.38;5036612;28;20102;-74
2022/12/22 04:41:56;;;;;;;10.05;6.10;;;;;;;0.19;nan;98556.91;5036181;28;20139;-73
2022/12/22 04:44:21;;;;;;;9.82;5.97;;;;;;;0.24;nan;98553.13;5018503;28;20041;-73
2022/12/22 04:46:45;;;;;;;7.70;5.65;;;;;;;0.23;nan;98551.44;5006818;28;20491;-74
2022/12/22 04:49:10;;;;;;;15.60;8.48;;;;;;;0.20;nan;98545.50;5018505;28;20044;-74
2022/12/22 04:51:34;;;;;;;10.20;7.15;;;;;;;0.19;nan;98547.28;5035429;28;20072;-73
2022/12/22 04:53:59;;;;;;;12.85;7.93;;;;;;;0.19;nan;98551.66;5000306;28;20044;-73
2022/12/22 04:56:24;;;;;;;10.80;7.57;;;;;;;0.19;nan;98562.16;5026391;28;20078;-73
2022/12/22 04:58:48;;;;;;;11.68;7.22;;;;;;;0.18;nan;98569.16;5036247;28;20145;-73
2022/12/22 05:01:18;;;;;;;12.40;7.88;;;;;;;0.22;nan;98573.34;5010910;28;20049;-74
2022/12/22 05:03:44;;;;;;;10.75;6.88;;;;;;;0.20;nan;98567.31;4998564;28;20041;-73
2022/12/22 05:06:09;;;;;;;12.50;7.35;;;;;;;0.25;nan;98564.47;5036200;28;20072;-73
2022/12/22 05:08:34;;;;;;;9.57;6.65;;;;;;;0.25;nan;98561.84;5001640;28;20045;-74
2022/12/22 05:10:59;;;;;;;15.85;10.48;;;;;;;0.22;nan;98565.50;5035420;28;20040;-73
2022/12/22 05:13:23;;;;;;;11.60;7.10;;;;;;;0.29;nan;98563.41;5018073;28;20042;-74
2022/12/22 05:15:48;;;;;;;9.20;6.57;;;;;;;0.26;nan;98568.78;5035920;28;20044;-72
2022/12/22 05:18:13;;;;;;;10.32;7.07;;;;;;;0.27;nan;98580.97;5018584;28;20037;-73
2022/12/22 05:20:37;;;;;;;10.45;6.60;;;;;;;0.28;nan;98580.91;5018088;28;20049;-71
2022/12/22 05:23:02;;;;;;;10.25;6.75;;;;;;;0.28;nan;98586.16;5036214;28;20056;-74
2022/12/22 05:25:27;;;;;;;13.82;9.57;;;;;;;0.25;nan;98581.03;5018595;28;20040;-76
2022/12/22 05:27:51;;;;;;;10.18;7.25;;;;;;;0.26;nan;98595.84;5031974;28;20419;-75
2022/12/22 05:30:17;;;;;;;15.68;8.52;;;;;;;0.29;nan;98589.63;5006899;28;20064;-64
2022/12/22 05:32:42;;;;;;;14.90;7.63;;;;;;;0.29;nan;98590.47;5035989;28;20046;-66
2022/12/22 05:35:07;;;;;;;15.32;8.48;;;;;;;0.28;nan;98590.53;5036057;28;20044;-65
2022/12/22 05:37:32;;;;;;;11.15;7.53;;;;;;;0.32;nan;98592.97;5005197;28;20037;-65
2022/12/22 05:39:57;;;;;;;12.65;8.25;;;;;;;0.30;nan;98605.28;5033503;28;20119;-65
2022/12/22 05:42:37;;;;;;;10.98;7.32;;;;;;;0.29;nan;98600.97;5035529;28;20147;-64
2022/12/22 05:45:15;;;;;;;16.25;8.68;;;;;;;0.33;nan;98601.69;5035054;28;20052;-64
2022/12/22 05:47:41;;;;;;;12.32;8.80;;;;;;;0.34;nan;98604.19;5023206;28;20442;-64
2022/12/22 05:50:07;;;;;;;13.43;7.93;;;;;;;0.35;nan;98608.53;5033297;28;20455;-63
2022/12/22 05:52:31;;;;;;;12.82;8.60;;;;;;;0.34;nan;98612.06;5035467;28;20036;-65
2022/12/22 05:54:56;;;;;;;12.02;8.50;;;;;;;0.33;nan;98607.78;5035282;28;20047;-63
2022/12/22 05:57:21;;;;;;;12.60;8.05;;;;;;;0.34;nan;98612.06;5034382;28;20089;-63
2022/12/22 05:59:46;;;;;;;11.73;8.50;;;;;;;0.40;nan;98615.34;5035115;28;20068;-64
2022/12/22 06:02:11;;;;;;;14.65;9.88;;;;;;;0.38;nan;98612.78;5034890;28;20068;-63
2022/12/22 06:04:35;;;;;;;18.92;11.05;;;;;;;0.34;nan;98616.47;5034768;28;20411;-65
2022/12/22 06:07:00;;;;;;;10.77;7.82;;;;;;;0.35;nan;98621.63;5034933;28;20036;-64
2022/12/22 06:09:24;;;;;;;16.27;10.02;;;;;;;0.30;nan;98617.53;4998003;28;20041;-65
2022/12/22 06:11:49;;;;;;;12.43;8.27;;;;;;;0.38;nan;98617.16;5026289;28;20047;-63
2022/12/22 06:14:13;;;;;;;18.02;10.82;;;;;;;0.33;nan;98620.03;5034767;28;20547;-66
2022/12/22 06:16:38;;;;;;;13.63;9.18;;;;;;;0.34;nan;98606.81;4996911;28;20043;-66
2022/12/22 06:19:03;;;;;;;19.40;9.75;;;;;;;0.36;nan;98606.75;5028902;28;20044;-66
2022/12/22 06:21:27;;;;;;;12.73;8.80;;;;;;;0.39;nan;98614.47;5034502;28;20060;-65
2022/12/22 06:23:53;;;;;;;20.80;9.43;;;;;;;0.38;nan;98614.56;5033880;28;20501;-66
2022/12/22 06:26:18;;;;;;;17.17;9.90;;;;;;;0.35;nan;98611.16;5033500;28;20040;-66
2022/12/22 06:28:42;;;;;;;13.35;9.18;;;;;;;0.39;nan;98618.88;5034793;28;20109;-66
2022/12/22 06:31:07;;;;;;;15.15;9.60;;;;;;;0.41;nan;98610.03;5034565;28;20045;-65
2022/12/22 06:33:33;;;;;;;17.17;11.20;;;;;;;0.43;nan;98612.56;5034458;28;20049;-64
2022/12/22 06:35:57;;;;;;;16.73;9.55;;;;;;;0.42;nan;98609.09;5034467;28;20490;-67
2022/12/22 06:38:22;;;;;;;15.02;10.60;;;;;;;0.40;nan;98599.59;5034675;28;20414;-64
2022/12/22 06:40:47;;;;;;;12.90;8.77;;;;;;;0.40;nan;98607.47;5034573;28;20040;-65
2022/12/22 06:43:11;;;;;;;15.52;9.55;;;;;;;0.41;nan;98611.78;5034384;28;20066;-65
2022/12/22 06:45:41;;;;;;;17.42;9.60;;;;;;;0.41;nan;98611.78;5034624;28;20044;-64
2022/12/22 06:48:10;;;;;;;16.05;10.05;;;;;;;0.45;nan;98613.38;5000066;28;20052;-64
2022/12/22 06:50:34;;;;;;;18.02;10.65;;;;;;;0.36;nan;98615.47;5013416;28;20085;-65
2022/12/22 06:52:59;;;;;;;14.45;10.13;;;;;;;0.35;nan;98607.66;5013016;28;20068;-63
2022/12/22 06:55:24;;;;;;;16.05;9.73;;;;;;;0.39;nan;98614.47;5030241;28;20068;-65
2022/12/22 06:57:49;;;;;;;15.55;9.27;;;;;;;0.40;nan;98618.81;5034317;28;20075;-64
2022/12/22 07:00:13;;;;;;;13.63;10.10;;;;;;;0.39;nan;98624.97;5034462;28;20043;-65
2022/12/22 07:02:38;;;;;;;15.90;10.65;;;;;;;0.39;nan;98621.50;5033690;28;20105;-63
2022/12/22 07:05:03;;;;;;;20.88;11.45;;;;;;;0.40;nan;98624.06;5034536;28;20048;-64
2022/12/22 07:07:28;;;;;;;19.67;11.75;;;;;;;0.40;nan;98616.19;5034254;28;20047;-65
2022/12/22 07:09:54;;;;;;;14.52;9.20;;;;;;;0.42;nan;98611.72;5034837;28;20040;-64
2022/12/22 07:12:18;;;;;;;12.98;8.95;;;;;;;0.49;nan;98622.75;5000003;28;20806;-64
2022/12/22 07:14:43;;;;;;;15.20;9.15;;;;;;;0.49;nan;98617.53;5034195;28;20457;-64
2022/12/22 07:17:08;;;;;;;20.40;10.05;;;;;;;0.49;nan;98610.50;5003700;28;20503;-64
2022/12/22 07:19:32;;;;;;;16.77;11.07;;;;;;;0.50;nan;98616.59;5032640;28;20515;-64
2022/12/22 07:21:57;;;;;;;17.42;9.70;;;;;;;0.50;nan;98621.84;5019911;28;20118;-65
2022/12/22 07:24:24;;;;;;;16.33;10.25;;;;;;;0.50;nan;98606.97;5014044;28;20048;-64
2022/12/22 07:26:49;;;;;;;15.30;9.55;;;;;;;0.54;nan;98619.03;4996331;28;20040;-64
2022/12/22 07:29:14;;;;;;;16.00;9.10;;;;;;;0.52;nan;98612.13;5014238;28;20045;-64
2022/12/22 07:31:38;;;;;;;18.10;10.48;;;;;;;0.53;nan;98617.31;4991521;28;20048;-65
2022/12/22 07:34:04;;;;;;;14.20;9.80;;;;;;;0.54;nan;98613.78;5006852;28;20128;-66
2022/12/22 07:36:28;;;;;;;16.42;10.68;;;;;;;0.54;nan;98612.91;4983260;28;20860;-65
2022/12/22 07:38:53;;;;;;;14.43;9.50;;;;;;;0.57;nan;98616.22;4987156;28;20345;-66
2022/12/22 07:44:04;;;;;;;13.07;8.43;;;;;;;0.63;nan;98630.84;5017723;28;20049;-64
2022/12/22 07:46:32;;;;;;;16.55;9.95;;;;;;;0.63;nan;98625.59;5016181;28;20055;-65
2022/12/22 07:51:41;;;;;;;13.95;9.02;;;;;;;0.68;nan;98634.06;5017611;28;20487;-63
2022/12/22 07:54:08;;;;;;;15.77;9.82;;;;;;;0.65;nan;98627.22;4996285;28;20095;-63
2022/12/22 07:56:33;;;;;;;16.67;10.32;;;;;;;0.64;nan;98633.38;4987689;28;20041;-64
2022/12/22 07:58:57;;;;;;;19.80;9.32;;;;;;;0.65;nan;98634.25;5014528;28;20128;-65
2022/12/22 08:01:22;;;;;;;14.13;9.40;;;;;;;0.66;nan;98634.19;4999346;28;20056;-64
2022/12/22 08:03:47;;;;;;;15.45;10.32;;;;;;;0.65;nan;98634.25;5017410;28;20395;-64
2022/12/22 08:06:11;;;;;;;15.57;10.48;;;;;;;0.64;nan;98633.38;4996612;28;20469;-63
2022/12/22 08:08:36;;;;;;;16.10;10.63;;;;;;;0.69;nan;98639.25;5009606;28;20388;-65
2022/12/22 08:11:02;;;;;;;13.20;9.13;;;;;;;0.68;nan;98632.31;4981094;28;20041;-64
2022/12/22 08:13:27;;;;;;;17.23;11.35;;;;;;;0.68;nan;98641.94;5007388;28;20084;-66
2022/12/22 08:15:51;;;;;;;17.25;10.00;;;;;;;0.70;nan;98637.47;4999422;28;20088;-65
2022/12/22 08:18:16;;;;;;;21.23;11.18;;;;;;;0.70;nan;98629.59;5018630;28;20037;-66
2022/12/22 08:20:48;;;;;;;22.90;12.68;;;;;;;0.71;nan;98634.78;5019525;28;20047;-65
2022/12/22 08:23:12;;;;;;;19.17;11.13;;;;;;;0.70;nan;98619.13;5037383;28;20052;-65
2022/12/22 08:25:37;;;;;;;17.52;10.88;;;;;;;0.73;nan;98621.59;5037525;28;20051;-66
2022/12/22 08:28:02;;;;;;;18.15;10.73;;;;;;;0.72;nan;98631.25;5015547;28;20045;-65
2022/12/22 08:30:26;;;;;;;13.02;9.32;;;;;;;0.73;nan;98638.19;5026742;28;20717;-66
2022/12/22 08:32:51;;;;;;;14.50;9.13;;;;;;;0.73;nan;98624.22;5018516;28;20051;-66
2022/12/22 08:35:16;;;;;;;18.42;10.18;;;;;;;0.72;nan;98626.00;5018833;28;20088;-65
2022/12/22 08:37:44;;;;;;;21.35;12.70;;;;;;;0.68;nan;98620.97;5036360;28;20105;-66
2022/12/22 08:40:25;;;;;;;15.50;10.57;;;;;;;0.78;nan;98621.41;5036550;28;20071;-66
2022/12/22 08:42:55;;;;;;;16.20;10.13;;;;;;;0.76;nan;98620.63;5036130;28;20044;-65
2022/12/22 08:45:20;;;;;;;17.23;10.35;;;;;;;0.72;nan;98625.16;5035973;28;20066;-66
2022/12/22 08:47:44;;;;;;;14.35;10.00;;;;;;;0.76;nan;98624.09;5014759;28;20045;-67
2022/12/22 08:50:09;;;;;;;20.75;11.07;;;;;;;0.83;nan;98622.00;4996063;28;20079;-65
2022/12/22 08:52:34;;;;;;;18.52;9.80;;;;;;;0.86;nan;98627.97;5036007;28;20063;-66
2022/12/22 08:54:58;;;;;;;15.55;10.00;;;;;;;0.88;nan;98620.88;5034795;28;20128;-66
2022/12/22 08:57:23;;;;;;;21.50;12.85;;;;;;;0.90;nan;98626.91;5038789;28;20406;-63
2022/12/22 08:59:47;;;;;;;14.88;10.75;;;;;;;0.99;nan;98621.19;5036940;28;20051;-64
2022/12/22 09:02:12;;;;;;;17.65;11.52;;;;;;;0.94;nan;98628.44;5039438;28;20810;-64
2022/12/22 09:04:37;;;;;;;16.35;10.63;;;;;;;0.96;nan;98638.84;5036492;28;20036;-65
2022/12/22 09:07:02;;;;;;;19.83;11.50;;;;;;;0.98;nan;98624.75;5036327;28;20044;-64
2022/12/22 09:09:31;;;;;;;14.77;9.18;;;;;;;1.05;nan;98634.00;5036189;28;20063;-65
2022/12/22 09:11:56;;;;;;;17.75;10.50;;;;;;;1.08;nan;98631.25;5035889;28;20068;-65
2022/12/22 09:14:20;;;;;;;17.08;10.20;;;;;;;1.08;nan;98641.75;5017934;28;20082;-64
2022/12/22 09:16:45;;;;;;;22.98;13.35;;;;;;;1.08;nan;98644.38;5014573;28;20041;-64
2022/12/22 09:19:09;;;;;;;20.80;11.93;;;;;;;1.07;nan;98633.94;5030816;28;20135;-65
2022/12/22 09:21:35;;;;;;;24.02;13.57;;;;;;;1.05;nan;98631.38;5035589;28;20063;-64
2022/12/22 09:24:00;;;;;;;17.90;10.75;;;;;;;1.03;nan;98630.59;5035561;28;20036;-66
2022/12/22 09:26:27;;;;;;;17.88;10.57;;;;;;;1.07;nan;98633.94;5035439;28;20036;-65
2022/12/22 09:28:52;;;;;;;17.58;11.10;;;;;;;1.03;nan;98648.13;5035325;28;20119;-64
2022/12/22 09:31:19;;;;;;;17.42;10.35;;;;;;;1.08;nan;98643.50;5035641;28;20495;-65
2022/12/22 09:33:43;;;;;;;17.77;10.18;;;;;;;1.13;nan;98635.41;5035704;28;20132;-65
2022/12/22 09:36:11;;;;;;;19.45;13.02;;;;;;;1.09;nan;98643.44;5035357;28;20044;-65
2022/12/22 09:38:37;;;;;;;16.65;10.27;;;;;;;1.12;nan;98642.44;5030731;28;20040;-66
2022/12/22 09:41:08;;;;;;;18.25;10.23;;;;;;;1.14;nan;98644.97;5027411;28;20068;-65
2022/12/22 09:43:33;;;;;;;16.67;10.55;;;;;;;1.11;nan;98646.00;5003642;28;20040;-65
2022/12/22 09:45:57;;;;;;;17.23;10.52;;;;;;;1.06;nan;98647.97;5036300;28;20078;-64
2022/12/22 09:48:25;;;;;;;14.32;9.43;;;;;;;1.12;nan;98644.22;5037368;28;20044;-65
2022/12/22 09:50:50;;;;;;;19.75;11.88;;;;;;;1.15;nan;98646.66;5023535;28;20060;-65
2022/12/22 09:53:21;;;;;;;17.98;11.23;;;;;;;1.14;nan;98644.97;5034600;28;20072;-65
2022/12/22 09:55:47;;;;;;;17.30;10.55;;;;;;;1.08;nan;98652.22;5034259;28;20134;-63
2022/12/22 09:58:23;;;;;;;22.73;12.13;;;;;;;1.13;nan;98646.75;5035430;28;20040;-66
2022/12/22 10:00:54;;;;;;;21.00;11.57;;;;;;;1.06;nan;98642.72;5034917;28;20509;-65
2022/12/22 10:03:51;;;;;;;20.10;11.35;;;;;;;1.09;nan;98638.19;5035037;28;20055;-66
2022/12/22 10:06:40;;;;;;;18.95;11.93;;;;;;;1.03;nan;98656.84;4931121;28;20058;-66
2022/12/22 10:09:20;;;;;;;18.92;10.40;;;;;;;1.00;nan;98659.63;4926208;28;20053;-66
2022/12/22 10:12:03;;;;;;;21.60;11.25;;;;;;;1.04;nan;98652.44;4937575;28;20046;-65
2022/12/22 10:14:37;;;;;;;17.42;10.52;;;;;;;1.06;nan;98640.97;4954069;28;20061;-65
2022/12/22 10:17:24;;;;;;;16.73;10.30;;;;;;;1.12;nan;98652.09;4953944;28;20078;-66
2022/12/22 10:19:52;;;;;;;19.92;11.48;;;;;;;1.03;nan;98638.47;4929782;28;20125;-65
2022/12/22 10:22:36;;;;;;;20.52;11.18;;;;;;;1.02;nan;98633.28;4953734;28;20054;-63
2022/12/22 10:25:03;;;;;;;16.33;9.93;;;;;;;0.96;nan;98629.22;4953855;28;20228;-65
2022/12/22 10:27:32;;;;;;;22.63;13.00;;;;;;;1.06;nan;98629.59;4954157;28;20050;-64
2022/12/22 10:30:31;;;;;;;20.10;10.50;;;;;;;1.16;nan;98616.88;4953707;28;20042;-63
2022/12/22 10:33:14;;;;;;;14.13;8.95;;;;;;;1.17;nan;98623.81;4915137;29;20062;-63
2022/12/22 10:35:53;;;;;;;15.65;9.90;;;;;;;1.26;nan;98631.22;4899375;29;20055;-64
2022/12/22 10:38:28;;;;;;;19.50;11.35;;;;;;;1.24;nan;98633.94;4898890;29;20043;-63
2022/12/22 10:40:57;;;;;;;;;;;;;;;1.25;nan;98626.91;4915672;29;20565;-64
2022/12/22 10:43:26;;;;;;;16.15;9.13;;;;;;;1.15;nan;98616.03;4954981;28;20061;-64
2022/12/22 10:45:53;;;;;;;16.60;10.35;;;;;;;1.19;nan;98624.59;4992658;28;20045;-64
2022/12/22 10:48:26;;;;;;;18.08;11.32;;;;;;;1.11;nan;98627.63;4975975;28;20049;-64
2022/12/22 10:50:52;;;;;;;15.73;10.88;;;;;;;1.15;nan;98636.16;4978922;28;20052;-66
2022/12/22 10:53:16;;;;;;;20.85;11.02;;;;;;;1.11;nan;98632.03;4992319;28;20045;-65
2022/12/22 10:55:42;;;;;;;16.98;10.68;;;;;;;1.15;nan;98629.16;4961902;28;20064;-65
2022/12/22 10:58:10;;;;;;;16.67;9.68;;;;;;;1.18;nan;98620.28;4992487;28;20053;-65
2022/12/22 11:00:37;;;;;;;19.48;11.73;;;;;;;1.22;nan;98617.44;4975567;28;20045;-66
2022/12/22 11:03:03;;;;;;;19.60;11.68;;;;;;;1.31;nan;98621.38;4993482;28;20088;-65
2022/12/22 11:05:30;;;;;;;17.70;9.65;;;;;;;1.27;nan;98633.78;4958117;28;20107;-65
2022/12/22 11:07:56;;;;;;;15.93;10.15;;;;;;;1.26;nan;98634.72;5003414;28;20123;-66
2022/12/22 11:10:40;;;;;;;19.83;12.75;;;;;;;1.14;nan;98647.59;5037072;28;20048;-65
2022/12/22 11:13:13;;;;;;;15.68;9.88;;;;;;;1.19;nan;98656.97;5025405;28;20120;-64
2022/12/22 11:15:49;;;;;;;22.60;13.95;;;;;;;1.16;nan;98651.84;5020234;28;20151;-64
2022/12/22 11:18:29;;;;;;;17.05;10.65;;;;;;;1.25;nan;98654.00;5020352;28;20487;-66
2022/12/22 11:21:19;;;;;;;18.90;10.82;;;;;;;1.29;nan;98663.44;5035465;28;20102;-64
2022/12/22 11:23:49;;;;;;;19.67;12.00;;;;;;;1.20;nan;98656.03;5020121;28;20040;-64
2022/12/22 11:26:21;;;;;;;18.67;11.70;;;;;;;1.18;nan;98651.78;5002567;28;20067;-65
2022/12/22 11:29:00;;;;;;;15.18;10.05;;;;;;;1.21;nan;98654.25;5028151;28;20445;-67
2022/12/22 11:31:46;;;;;;;19.45;10.35;;;;;;;1.19;nan;98658.72;5037807;28;20090;-66
2022/12/22 11:34:44;;;;;;;19.83;12.85;;;;;;;1.26;nan;98647.84;5037813;28;20052;-65
2022/12/22 11:37:14;;;;;;;20.23;12.82;;;;;;;1.25;nan;98645.28;5027186;28;20040;-65
2022/12/22 11:39:53;;;;;;;22.88;11.93;;;;;;;1.31;nan;98648.47;5037485;28;20440;-65
2022/12/22 11:42:51;;;;;;;20.55;11.48;;;;;;;1.24;nan;98656.75;5036551;28;20049;-66
2022/12/22 11:45:35;;;;;;;20.17;11.50;;;;;;;1.25;nan;98653.16;5037576;28;20075;-66
2022/12/22 11:48:15;;;;;;;17.05;10.52;;;;;;;1.26;nan;98660.97;5002571;28;20052;-64
2022/12/22 11:50:44;;;;;;;18.65;10.50;;;;;;;1.30;nan;98657.28;5037633;28;20379;-64
2022/12/22 11:53:45;;;;;;;16.13;9.70;;;;;;;1.30;nan;98666.91;5037379;28;20047;-64
2022/12/22 11:56:21;;;;;;;16.65;9.38;;;;;;;1.25;nan;98675.00;5007984;28;20127;-65
2022/12/22 11:58:58;;;;;;;16.00;9.90;;;;;;;1.22;nan;98669.09;5016157;28;20052;-66
2022/12/22 12:01:32;;;;;;;17.08;10.60;;;;;;;1.21;nan;98680.50;5026345;28;20079;-65
2022/12/22 12:04:06;;;;;;;15.98;8.13;;;;;;;1.14;nan;98682.56;5019784;28;20050;-73
2022/12/22 12:06:49;;;;;;;16.50;9.33;;;;;;;1.25;nan;98679.41;5020272;28;20040;-73
2022/12/22 12:09:51;;;;;;;15.90;9.30;;;;;;;1.22;nan;98688.31;5002665;28;20045;-73
2022/12/22 12:12:28;;;;;;;17.90;10.40;;;;;;;1.05;nan;98689.13;5032169;28;20926;-72
2022/12/22 12:15:18;;;;;;;15.23;9.95;;;;;;;1.14;nan;98700.09;5037325;28;20047;-70
2022/12/22 12:17:49;;;;;;;13.88;9.13;;;;;;;1.11;nan;98695.00;5019111;28;20090;-73
2022/12/22 12:20:28;;;;;;;18.23;10.32;;;;;;;1.19;nan;98700.72;5002055;28;20048;-72
2022/12/22 12:23:06;;;;;;;14.68;9.25;;;;;;;1.16;nan;98698.25;5001081;28;20052;-75
2022/12/22 12:25:58;;;;;;;15.02;9.73;;;;;;;1.18;nan;98683.28;4999236;28;20514;-72
2022/12/22 12:28:47;;;;;;;15.82;10.40;;;;;;;1.13;nan;98691.38;4991198;28;20504;-72
2022/12/22 12:31:15;;;;;;;14.18;8.95;;;;;;;1.22;nan;98701.44;5016764;28;20072;-73
2022/12/22 12:33:48;;;;;;;19.02;10.80;;;;;;;1.10;nan;98696.78;5020324;28;20064;-73
2022/12/22 12:36:18;;;;;;;18.25;11.15;;;;;;;1.15;nan;98693.91;4998776;28;20120;-73
2022/12/22 12:39:02;;;;;;;16.20;9.77;;;;;;;1.11;nan;98690.63;4996185;28;20449;-72
2022/12/22 12:41:37;;;;;;;14.27;9.18;;;;;;;1.14;nan;98697.47;4998953;28;20102;-71
2022/12/22 12:44:03;;;;;;;16.10;10.65;;;;;;;1.05;nan;98694.38;4997685;28;20057;-75
2022/12/22 12:46:51;;;;;;;15.98;9.73;;;;;;;1.01;nan;98694.59;5010303;28;20499;-77
2022/12/22 12:49:34;;;;;;;20.45;9.38;;;;;;;1.08;nan;98703.88;4997291;28;20036;-82
2022/12/22 12:52:10;;;;;;;15.07;8.52;;;;;;;1.10;nan;98704.66;4964759;28;20067;-77
2022/12/22 12:54:36;;;;;;;17.35;10.57;;;;;;;1.02;nan;98699.75;4998939;28;20041;-76
2022/12/22 12:57:25;;;;;;;21.25;11.07;;;;;;;1.06;nan;98703.94;5005008;28;20075;-76
2022/12/22 12:59:52;;;;;;;16.55;8.57;;;;;;;1.06;nan;98701.31;4981092;28;20452;-78
2022/12/22 13:02:25;;;;;;;16.77;9.25;;;;;;;1.11;nan;98700.25;4983698;28;20037;-73
2022/12/22 13:05:11;;;;;;;14.40;8.73;;;;;;;1.22;nan;98697.97;4963858;28;20140;-75
2022/12/22 13:08:06;;;;;;;15.88;8.45;;;;;;;1.25;nan;98692.53;4980945;28;20410;-74
2022/12/22 13:10:33;;;;;;;11.93;7.57;;;;;;;1.22;nan;98696.19;4983108;28;20033;-78
2022/12/22 13:12:58;;;;;;;12.75;7.53;;;;;;;1.14;nan;98700.09;5003207;28;20427;-76
2022/12/22 13:15:35;;;;;;;14.68;8.65;;;;;;;1.17;nan;98702.56;5015553;28;20393;-77
2022/12/22 13:18:02;;;;;;;15.10;9.25;;;;;;;1.16;nan;98695.63;5017068;28;20041;-76
2022/12/22 13:20:35;;;;;;;10.63;6.90;;;;;;;1.21;nan;98709.38;4990427;28;20047;-74
2022/12/22 13:23:03;;;;;;;15.00;9.07;;;;;;;1.11;nan;98701.09;5035380;28;20056;-75
2022/12/22 13:25:41;;;;;;;14.02;7.70;;;;;;;1.14;nan;98700.09;5035395;28;20040;-69
2022/12/22 13:28:13;;;;;;;12.32;7.85;;;;;;;1.14;nan;98703.56;5017235;28;20044;-70
2022/12/22 13:30:39;;;;;;;13.95;8.88;;;;;;;1.02;nan;98712.03;5035280;28;20114;-72
2022/12/22 13:33:11;;;;;;;14.40;7.97;;;;;;;1.04;nan;98713.66;5015073;28;20044;-70
2022/12/22 13:35:40;;;;;;;14.48;9.27;;;;;;;1.00;nan;98716.53;4999749;28;20041;-71
2022/12/22 13:38:05;;;;;;;11.93;8.07;;;;;;;1.04;nan;98723.31;5008329;28;20059;-70
2022/12/22 13:40:39;;;;;;;15.57;8.48;;;;;;;1.12;nan;98715.09;5033689;28;20040;-72
2022/12/22 13:43:14;;;;;;;14.25;9.07;;;;;;;1.17;nan;98713.06;5007184;28;20041;-76
2022/12/22 13:45:40;;;;;;;;;;;;;;;1.28;nan;98716.03;5015543;28;20056;-73
2022/12/22 13:48:11;;;;;;;12.93;8.10;;;;;;;1.21;nan;98723.38;5034184;28;19921;-67
2022/12/22 13:50:41;;;;;;;13.02;7.22;;;;;;;1.17;nan;98724.44;5033336;28;20383;-67
2022/12/22 13:53:08;;;;;;;14.95;8.05;;;;;;;1.13;nan;98724.66;5023387;28;20127;-67
2022/12/22 13:55:35;;;;;;;13.43;8.38;;;;;;;1.16;nan;98729.75;5016747;28;20044;-68
2022/12/22 13:58:08;;;;;;;16.75;8.23;;;;;;;1.20;nan;98736.56;5026205;28;20127;-74
2022/12/22 14:00:33;;;;;;;13.85;7.47;;;;;;;1.10;nan;98733.53;5008788;28;20043;-75
2022/12/22 14:02:58;;;;;;;12.45;8.15;;;;;;;1.18;nan;98725.28;5010456;28;20340;-72
2022/12/22 14:05:29;;;;;;;10.05;7.40;;;;;;;1.25;nan;98729.28;5015604;28;20131;-73
2022/12/22 14:08:04;;;;;;;15.40;7.53;;;;;;;1.26;nan;98729.22;5033583;28;20068;-69
2022/12/22 14:10:34;;;;;;;;;;;;;;;1.39;nan;98724.22;5035244;28;20046;-69
2022/12/22 14:13:01;;;;;;;14.07;8.93;;;;;;;1.25;nan;98729.28;5033323;28;19920;-70
2022/12/22 14:15:27;;;;;;;12.98;9.27;;;;;;;1.28;nan;98732.63;5035179;28;20122;-71
2022/12/22 14:17:51;;;;;;;11.90;7.65;;;;;;;1.21;nan;98731.25;5034598;28;20135;-69
2022/12/22 14:20:27;;;;;;;15.15;7.97;;;;;;;1.23;nan;98728.53;5009182;28;20041;-69
2022/12/22 14:23:21;;;;;;;12.80;8.15;;;;;;;1.16;nan;98732.38;5014823;28;20056;-74
2022/12/22 14:25:47;;;;;;;12.68;8.82;;;;;;;1.07;nan;98729.28;5035605;28;20040;-75
2022/12/22 14:28:23;;;;;;;11.35;7.60;;;;;;;1.16;nan;98721.88;5017461;28;20044;-75
2022/12/22 14:30:52;;;;;;;11.93;7.60;;;;;;;1.14;nan;98721.09;5019784;28;20036;-74
2022/12/22 14:33:28;;;;;;;11.20;7.43;;;;;;;1.11;nan;98726.50;5016692;28;20397;-69
2022/12/22 14:36:16;;;;;;;14.05;8.43;;;;;;;1.12;nan;98728.22;4965850;28;20032;-69
2022/12/22 14:38:53;;;;;;;11.20;6.95;;;;;;;1.09;nan;98721.31;5018401;28;20401;-74
2022/12/22 14:44:03;;;;;;;13.10;7.80;;;;;;;1.10;nan;98725.66;5047970;28;20045;-72
2022/12/22 14:46:32;;;;;;;12.18;7.43;;;;;;;1.19;nan;98742.72;5005967;28;20044;-71
2022/12/22 14:48:58;;;;;;;15.95;9.05;;;;;;;1.20;nan;98754.94;5050082;28;20052;-74
2022/12/22 14:51:24;;;;;;;15.50;7.85;;;;;;;1.23;nan;98753.03;5048334;28;20045;-72
2022/12/22 14:53:58;;;;;;;10.07;6.65;;;;;;;1.33;nan;98754.28;5016521;28;20071;-72
2022/12/22 14:56:26;;;;;;;14.38;9.38;;;;;;;1.33;nan;98767.41;5040628;28;20109;-71
2022/12/22 14:59:06;;;;;;;13.30;8.25;;;;;;;1.29;nan;98770.25;5038917;28;20534;-70
2022/12/22 15:01:31;;;;;;;15.57;9.18;;;;;;;1.22;nan;98763.59;5038954;28;20045;-70
2022/12/22 15:04:05;;;;;;;12.90;7.70;;;;;;;1.33;nan;98770.03;5037486;28;20067;-70
2022/12/22 15:06:34;;;;;;;15.45;8.45;;;;;;;1.29;nan;98763.22;5039010;28;20075;-70
2022/12/22 15:09:07;;;;;;;11.50;7.95;;;;;;;1.36;nan;98766.38;4985762;28;20044;-72
2022/12/22 15:11:34;;;;;;;11.00;7.78;;;;;;;1.28;nan;98771.16;5032004;28;20083;-70
2022/12/22 15:14:00;;;;;;;17.17;8.43;;;;;;;1.34;nan;98771.75;5009248;28;20101;-70
2022/12/22 15:16:26;;;;;;;11.10;7.47;;;;;;;1.35;nan;98791.81;5037354;28;20516;-70
2022/12/22 15:18:51;;;;;;;16.17;9.18;;;;;;;1.28;nan;98784.28;5011382;28;20500;-70
2022/12/22 15:21:18;;;;;;;13.55;8.07;;;;;;;1.34;nan;98769.13;5033756;28;20064;-70
2022/12/22 15:23:44;;;;;;;14.77;8.25;;;;;;;1.39;nan;98774.13;5038652;28;20076;-72
2022/12/22 15:26:10;;;;;;;12.15;8.32;;;;;;;1.37;nan;98761.06;5030099;28;20589;-70
2022/12/22 15:28:35;;;;;;;12.85;8.32;;;;;;;1.33;nan;98758.69;5036791;28;20028;-70
2022/12/22 15:31:02;;;;;;;15.20;8.20;;;;;;;1.35;nan;98772.59;5016736;28;20037;-72
2022/12/22 15:33:28;;;;;;;10.27;7.35;;;;;;;1.37;nan;98773.34;5017774;28;20433;-71
2022/12/22 15:35:53;;;;;;;12.30;7.55;;;;;;;1.38;nan;98769.78;5037791;28;20055;-71
2022/12/22 15:38:20;;;;;;;17.17;8.63;;;;;;;1.39;nan;98769.72;5019510;28;20044;-71
2022/12/22 15:40:45;;;;;;;13.48;8.30;;;;;;;1.34;nan;98777.00;5019671;28;20036;-71
2022/12/22 15:43:11;;;;;;;13.73;9.07;;;;;;;1.30;nan;98779.81;5016503;28;20094;-70